Time;durP1;ratioP1;P1;durP2;ratioP2;P2;SDS_P1;SDS_P2;PMS_P1;PMS_P2;Temp;Humidity;BMP_temperature;BMP_pressure;BME280_temperature;BME280_humidity;BME280_pressure;Samples;Min_cycle;Max_cycle;Signal;HPM_P1;HPM_P2
2024/04/11 00:00:49;;;;;;;20.60;14.20;;;;;;;12.46;100.00;100900.77;104821;1267;65788;-56
2024/04/11 00:03:17;;;;;;;21.70;13.70;;;;;;;12.46;100.00;100902.30;104732;1266;72854;-57
2024/04/11 00:05:45;;;;;;;23.30;16.10;;;;;;;12.45;100.00;100901.23;104721;1268;200051;-56
2024/04/11 00:08:12;;;;;;;17.20;12.70;;;;;;;12.38;100.00;100896.73;105371;1257;60045;-57
2024/04/11 00:10:40;;;;;;;19.30;13.30;;;;;;;12.33;100.00;100901.20;105335;1256;73101;-56
2024/04/11 00:13:08;;;;;;;19.20;14.30;;;;;;;12.27;100.00;100901.77;105379;1256;67882;-57
2024/04/11 00:15:35;;;;;;;20.10;14.10;;;;;;;12.22;100.00;100905.92;105355;1258;72655;-57
2024/04/11 00:18:04;;;;;;;16.80;13.10;;;;;;;12.19;100.00;100910.63;105267;1260;60454;-57
2024/04/11 00:20:32;;;;;;;22.60;13.90;;;;;;;12.17;100.00;100913.85;105346;1260;60460;-56
2024/04/11 00:22:59;;;;;;;22.80;14.00;;;;;;;12.12;100.00;100913.02;105337;1260;74512;-57
2024/04/11 00:25:27;;;;;;;20.60;14.60;;;;;;;12.07;100.00;100914.63;105396;1258;65645;-56
2024/04/11 00:27:55;;;;;;;17.10;13.60;;;;;;;12.03;100.00;100915.67;105227;1260;72762;-57
2024/04/11 00:30:22;;;;;;;19.90;13.60;;;;;;;11.99;100.00;100915.09;105276;1263;60619;-55
2024/04/11 00:32:50;;;;;;;18.00;13.40;;;;;;;11.93;100.00;100914.11;105520;1257;60538;-56
2024/04/11 00:35:18;;;;;;;17.30;13.80;;;;;;;11.86;100.00;100916.64;105482;1260;73878;-58
2024/04/11 00:37:48;;;;;;;21.20;13.80;;;;;;;11.80;100.00;100919.29;105541;1257;67036;-56
2024/04/11 00:40:16;;;;;;;19.80;14.50;;;;;;;11.72;100.00;100923.20;105304;1261;71497;-56
2024/04/11 00:42:43;;;;;;;29.00;22.80;;;;;;;11.66;100.00;100923.17;105236;1261;60455;-57
2024/04/11 00:45:12;;;;;;;30.60;19.50;;;;;;;11.62;100.00;100926.27;105339;1257;60460;-57
2024/04/11 00:47:40;;;;;;;26.90;17.90;;;;;;;11.54;100.00;100926.77;105447;1260;73908;-56
2024/04/11 00:50:08;;;;;;;26.20;19.50;;;;;;;11.49;100.00;100927.23;105556;1260;67020;-57
2024/04/11 00:52:36;;;;;;;28.00;17.70;;;;;;;11.48;100.00;100926.61;105496;1257;71885;-58
2024/04/11 00:55:04;;;;;;;27.60;18.30;;;;;;;11.50;100.00;100928.66;105230;1262;60863;-56
2024/04/11 00:57:35;;;;;;;27.10;17.10;;;;;;;11.50;100.00;100930.16;105599;1254;60466;-56
2024/04/11 01:00:06;;;;;;;29.20;19.10;;;;;;;11.50;100.00;100931.98;105665;1257;73827;-57
2024/04/11 01:02:35;;;;;;;24.00;17.40;;;;;;;11.48;100.00;100937.26;105524;1257;66915;-57
2024/04/11 01:05:03;;;;;;;25.90;17.90;;;;;;;11.45;100.00;100940.48;105316;1258;71784;-57
2024/04/11 01:07:32;;;;;;;29.70;20.80;;;;;;;11.44;100.00;100940.86;105393;1259;60552;-57
2024/04/11 01:10:00;;;;;;;28.90;19.90;;;;;;;11.43;100.00;100942.11;105704;1254;61078;-56
2024/04/11 01:12:27;;;;;;;31.20;21.90;;;;;;;11.36;100.00;100942.34;105856;1254;72780;-57
2024/04/11 01:14:55;;;;;;;27.70;18.50;;;;;;;11.29;100.00;100943.20;105513;1254;67812;-57
2024/04/11 01:17:23;;;;;;;25.80;18.70;;;;;;;11.21;100.00;100942.80;105670;1254;72710;-56
2024/04/11 01:19:50;;;;;;;29.80;19.20;;;;;;;11.20;100.00;100941.51;105610;1258;60465;-56
2024/04/11 01:22:18;;;;;;;28.60;18.90;;;;;;;11.20;100.00;100942.54;105630;1254;60696;-60
2024/04/11 01:24:47;;;;;;;31.60;20.00;;;;;;;11.19;100.00;100940.43;105526;1259;74373;-58
2024/04/11 01:27:15;;;;;;;34.60;20.80;;;;;;;11.19;100.00;100941.58;105757;1254;65442;-56
2024/04/11 01:29:45;;;;;;;26.60;19.00;;;;;;;11.22;100.00;100938.23;105777;1259;72648;-58
2024/04/11 01:32:13;;;;;;;29.50;19.30;;;;;;;11.23;100.00;100939.98;105712;1260;60394;-58
2024/04/11 01:34:41;;;;;;;31.80;18.70;;;;;;;11.24;100.00;100934.50;105442;1254;60603;-56
2024/04/11 01:37:09;;;;;;;35.10;19.10;;;;;;;11.24;100.00;100931.14;105780;1253;72935;-56
2024/04/11 01:39:39;;;;;;;28.30;17.80;;;;;;;11.24;100.00;100932.73;105713;1253;67163;-58
2024/04/11 01:42:08;;;;;;;25.40;17.90;;;;;;;11.23;100.00;100933.60;105658;1253;71912;-57
2024/04/11 01:44:36;;;;;;;22.80;16.70;;;;;;;11.22;100.00;100931.98;106981;1253;60448;-58
2024/04/11 01:47:04;;;;;;;23.30;16.70;;;;;;;11.20;100.00;100933.79;105697;1256;60454;-57
2024/04/11 01:49:31;;;;;;;28.20;17.20;;;;;;;11.20;100.00;100935.59;106369;1252;73867;-57
2024/04/11 01:52:09;;;;;;;25.00;16.00;;;;;;;11.19;100.00;100932.56;105819;1253;65910;-57
2024/04/11 01:54:37;;;;;;;27.20;16.30;;;;;;;11.17;100.00;100930.76;105825;1258;72804;-57
2024/04/11 01:57:10;;;;;;;27.70;18.70;;;;;;;11.15;100.00;100929.91;105677;1257;60556;-57
2024/04/11 01:59:38;;;;;;;23.70;17.70;;;;;;;11.14;100.00;100934.23;105766;1257;60553;-58
2024/04/11 02:02:08;;;;;;;30.90;20.90;;;;;;;11.09;100.00;100934.90;105676;1253;73847;-58
2024/04/11 02:04:36;;;;;;;36.80;25.80;;;;;;;11.03;100.00;100934.36;105662;1253;67685;-58
2024/04/11 02:07:04;;;;;;;39.50;27.80;;;;;;;10.95;100.00;100936.41;105653;1257;71717;-58
2024/04/11 02:09:32;;;;;;;36.00;26.40;;;;;;;10.87;100.00;100940.33;105653;1253;61688;-58
2024/04/11 02:12:00;;;;;;;35.40;23.30;;;;;;;10.78;100.00;100940.94;105689;1253;60428;-58
2024/04/11 02:14:31;;;;;;;32.50;22.50;;;;;;;10.70;100.00;100943.85;105842;1253;72630;-61
2024/04/11 02:16:59;;;;;;;35.10;23.90;;;;;;;10.63;100.00;100946.18;105698;1252;66990;-58
2024/04/11 02:19:28;;;;;;;31.00;22.10;;;;;;;10.61;100.00;100949.56;108094;1252;72733;-57
2024/04/11 02:21:56;;;;;;;32.30;21.40;;;;;;;10.62;100.00;100949.16;106876;1256;60099;-57
2024/04/11 02:24:24;;;;;;;32.40;22.60;;;;;;;10.62;100.00;100951.73;105826;1257;60316;-58
2024/04/11 02:26:52;;;;;;;28.90;21.20;;;;;;;10.61;100.00;100952.00;105587;1256;72875;-57
2024/04/11 02:29:21;;;;;;;34.20;21.60;;;;;;;10.59;100.00;100946.54;105694;1253;65232;-58
2024/04/11 02:31:49;;;;;;;32.10;22.70;;;;;;;10.55;100.00;100946.27;105735;1257;72707;-58
2024/04/11 02:34:16;;;;;;;36.10;23.00;;;;;;;10.49;100.00;100947.02;105661;1253;60454;-59
2024/04/11 02:36:47;;;;;;;31.90;23.20;;;;;;;10.43;100.00;100944.89;105712;1256;60409;-58
2024/04/11 02:39:16;;;;;;;36.80;23.30;;;;;;;10.38;100.00;100945.97;105683;1253;73870;-58
2024/04/11 02:41:44;;;;;;;31.10;20.90;;;;;;;10.34;100.00;100953.66;105594;1253;66925;-57
2024/04/11 02:44:12;;;;;;;30.90;19.70;;;;;;;10.32;100.00;100955.62;105678;1253;72698;-58
2024/04/11 02:46:40;;;;;;;27.40;19.70;;;;;;;10.32;100.00;100959.98;105809;1253;60601;-58
2024/04/11 02:49:08;;;;;;;30.10;20.20;;;;;;;10.34;100.00;100958.02;105812;1252;60527;-58
2024/04/11 02:51:35;;;;;;;27.70;19.00;;;;;;;10.37;100.00;100952.32;105858;1253;74342;-59
2024/04/11 02:54:05;;;;;;;30.30;20.40;;;;;;;10.43;100.00;100952.02;105841;1253;66034;-58
2024/04/11 02:56:33;;;;;;;27.20;18.70;;;;;;;10.46;100.00;100955.84;105922;1258;72846;-59
2024/04/11 02:59:01;;;;;;;30.60;19.20;;;;;;;10.48;100.00;100959.80;105615;1254;60434;-58
2024/04/11 03:01:31;;;;;;;26.60;17.30;;;;;;;10.51;100.00;100957.98;105723;1251;60386;-57
2024/04/11 03:04:01;;;;;;;28.30;19.10;;;;;;;10.56;100.00;100960.27;105687;1252;73330;-57
2024/04/11 03:06:31;;;;;;;24.10;17.70;;;;;;;10.63;100.00;100958.92;105732;1257;66897;-57
2024/04/11 03:09:00;;;;;;;37.40;20.50;;;;;;;10.72;100.00;100959.02;105598;1252;72675;-57
2024/04/11 03:11:29;;;;;;;32.90;20.40;;;;;;;10.83;100.00;100964.79;105680;1253;61749;-57
2024/04/11 03:13:57;;;;;;;34.80;20.70;;;;;;;10.99;100.00;100967.80;105689;1254;60538;-58
2024/04/11 03:16:29;;;;;;;34.90;20.60;;;;;;;11.14;100.00;100963.29;105745;1253;75217;-57
2024/04/11 03:18:57;;;;;;;30.50;22.00;;;;;;;11.31;100.00;100963.64;105639;1255;67048;-57
2024/04/11 03:21:25;;;;;;;33.50;21.00;;;;;;;11.51;100.00;100967.96;105583;1257;72825;-57
2024/04/11 03:23:52;;;;;;;30.20;20.30;;;;;;;11.74;100.00;100969.73;105685;1257;60416;-57
2024/04/11 03:26:20;;;;;;;25.40;18.80;;;;;;;12.00;100.00;100966.88;105687;1257;60333;-57
2024/04/11 03:28:48;;;;;;;25.80;18.00;;;;;;;12.31;100.00;100968.92;105625;1252;73906;-57
2024/04/11 03:31:18;;;;;;;32.10;18.60;;;;;;;12.68;100.00;100963.36;105699;1257;67199;-57
2024/04/11 03:33:46;;;;;;;32.20;19.70;;;;;;;13.13;100.00;100964.73;105538;1257;72695;-57
2024/04/11 03:36:14;;;;;;;26.60;20.10;;;;;;;13.60;100.00;100964.80;105784;1257;60489;-58
2024/04/11 03:38:42;;;;;;;24.70;19.30;;;;;;;14.13;100.00;100955.95;105646;1257;60417;-57
2024/04/11 03:41:10;;;;;;;26.70;20.60;;;;;;;14.67;100.00;100953.21;105816;1254;73922;-57
2024/04/11 03:43:41;;;;;;;27.50;19.80;;;;;;;15.19;100.00;100953.15;105897;1257;65680;-57
2024/04/11 03:46:24;;;;;;;29.80;22.40;;;;;;;15.75;100.00;100953.83;105841;1257;72696;-58
2024/04/11 03:48:56;;;;;;;30.30;21.50;;;;;;;16.36;100.00;100952.07;105643;1253;61082;-58
2024/04/11 03:51:28;;;;;;;30.30;21.70;;;;;;;16.94;100.00;100950.17;105609;1252;60603;-58
2024/04/11 03:53:56;;;;;;;29.60;20.40;;;;;;;17.49;100.00;100951.21;105831;1257;73962;-59
2024/04/11 03:56:24;;;;;;;26.90;19.00;;;;;;;18.03;100.00;100954.25;105777;1253;67145;-57
2024/04/11 03:58:52;;;;;;;26.60;21.40;;;;;;;18.59;100.00;100955.55;105633;1253;72726;-57
2024/04/11 04:01:22;;;;;;;32.30;22.80;;;;;;;19.07;100.00;100951.05;105695;1252;61171;-57
2024/04/11 04:03:54;;;;;;;25.90;22.60;;;;;;;19.46;100.00;100951.77;106008;1251;61412;-58
2024/04/11 04:06:22;;;;;;;28.60;21.80;;;;;;;19.91;100.00;100949.80;105499;1253;73004;-58
2024/04/11 04:08:50;;;;;;;30.90;23.90;;;;;;;20.27;98.58;100949.45;105711;1253;67635;-57
2024/04/11 04:11:19;;;;;;;28.90;22.90;;;;;;;20.59;94.31;100947.10;105596;1253;72757;-57
2024/04/11 04:13:50;;;;;;;26.20;22.40;;;;;;;20.98;88.60;100945.83;105794;1254;61176;-58
2024/04/11 04:16:17;;;;;;;;;;;;;;;21.35;81.60;100947.99;105811;1256;61142;-57
2024/04/11 04:18:52;;;;;;;27.80;22.20;;;;;;;21.64;74.53;100948.31;105694;1254;74682;-57
2024/04/11 04:21:26;;;;;;;24.60;21.40;;;;;;;22.15;66.30;100946.70;105588;1253;67511;-58
2024/04/11 04:23:55;;;;;;;29.10;22.90;;;;;;;22.63;61.67;100943.81;105857;1254;71438;-58
2024/04/11 04:26:26;;;;;;;27.20;22.40;;;;;;;23.20;57.24;100940.25;105641;1253;61346;-58
2024/04/11 04:28:53;;;;;;;29.40;21.50;;;;;;;23.74;52.13;100942.32;105829;1254;61328;-57
2024/04/11 04:31:25;;;;;;;30.90;20.90;;;;;;;24.21;48.78;100945.71;105711;1253;73366;-57
2024/04/11 04:33:54;;;;;;;27.00;21.10;;;;;;;24.69;46.10;100943.55;105629;1253;67374;-58
2024/04/11 04:36:26;;;;;;;22.20;19.20;;;;;;;25.19;44.35;100951.84;105574;1256;72665;-58
2024/04/11 04:38:56;;;;;;;27.10;21.20;;;;;;;25.69;42.70;100949.67;105558;1255;61366;-58
2024/04/11 04:41:26;;;;;;;27.60;23.40;;;;;;;26.17;41.51;100951.64;105658;1253;61363;-59
2024/04/11 04:43:57;;;;;;;31.20;22.70;;;;;;;26.58;40.02;100949.31;105416;1257;74744;-56
2024/04/11 04:46:26;;;;;;;29.70;23.00;;;;;;;26.88;38.43;100946.36;105627;1253;65401;-58
2024/04/11 04:48:53;;;;;;;23.80;20.60;;;;;;;27.12;37.13;100949.02;106062;1251;71443;-56
2024/04/11 04:51:23;;;;;;;25.40;19.80;;;;;;;27.29;35.74;100950.34;105521;1253;61620;-59
2024/04/11 04:53:50;;;;;;;25.10;21.80;;;;;;;27.44;34.74;100948.78;105548;1257;59580;-58
2024/04/11 04:56:19;;;;;;;31.00;21.90;;;;;;;27.60;34.54;100948.77;105692;1253;76083;-57
2024/04/11 04:58:49;;;;;;;25.20;19.70;;;;;;;27.86;33.33;100949.33;105785;1251;67513;-57
2024/04/11 05:01:17;;;;;;;20.60;17.60;;;;;;;28.06;32.35;100948.29;105645;1253;72772;-60
2024/04/11 05:03:45;;;;;;;20.30;17.70;;;;;;;28.24;31.35;100948.01;105823;1251;61273;-57
2024/04/11 05:06:13;;;;;;;24.20;17.50;;;;;;;28.41;31.22;100949.70;105637;1253;61148;-59
2024/04/11 05:08:48;;;;;;;21.70;16.20;;;;;;;28.72;31.08;100954.23;105595;1252;73422;-57
2024/04/11 05:11:16;;;;;;;23.20;17.60;;;;;;;29.06;30.39;100953.27;105462;1252;67210;-59
2024/04/11 05:13:44;;;;;;;26.90;18.20;;;;;;;29.23;29.90;100953.52;105605;1253;73165;-57
2024/04/11 05:16:19;;;;;;;26.60;17.80;;;;;;;29.34;29.47;100953.63;105695;1256;61202;-58
2024/04/11 05:18:51;;;;;;;24.10;18.30;;;;;;;29.53;29.15;100960.75;105847;1257;61150;-58
2024/04/11 05:21:24;;;;;;;22.60;17.70;;;;;;;29.76;29.04;100959.16;105679;1257;77105;-58
2024/04/11 05:23:54;;;;;;;21.00;17.80;;;;;;;29.96;28.47;100958.45;105608;1257;67668;-58
2024/04/11 05:26:25;;;;;;;22.20;18.90;;;;;;;30.06;28.40;100961.27;105688;1253;72727;-57
2024/04/11 05:28:54;;;;;;;20.20;16.10;;;;;;;30.20;28.20;100962.11;105710;1253;61317;-58
2024/04/11 05:31:25;;;;;;;20.40;17.60;;;;;;;30.34;27.97;100962.23;105505;1257;61237;-58
2024/04/11 05:33:54;;;;;;;21.60;15.80;;;;;;;30.30;27.69;100960.60;105696;1252;73713;-58
2024/04/11 05:36:28;;;;;;;22.90;17.30;;;;;;;30.08;27.75;100961.84;105707;1254;67582;-58
2024/04/11 05:38:56;;;;;;;22.90;16.10;;;;;;;29.81;27.93;100960.27;105494;1257;71916;-58
2024/04/11 05:41:25;;;;;;;19.30;15.70;;;;;;;29.48;28.19;100957.77;105461;1253;61294;-57
2024/04/11 05:43:54;;;;;;;18.30;15.50;;;;;;;29.26;28.46;100956.42;105603;1257;61302;-57
2024/04/11 05:46:22;;;;;;;20.40;16.40;;;;;;;29.16;28.64;100952.98;105781;1257;74672;-57
2024/04/11 05:48:50;;;;;;;23.80;18.80;;;;;;;29.19;28.91;100951.74;105875;1253;66910;-58
2024/04/11 05:51:19;;;;;;;27.90;19.30;;;;;;;29.23;28.86;100954.87;105651;1253;73203;-58
2024/04/11 05:53:47;;;;;;;26.00;19.10;;;;;;;29.29;29.00;100954.88;105696;1251;61343;-57
2024/04/11 05:56:15;;;;;;;30.30;18.00;;;;;;;29.52;28.77;100957.23;105631;1253;61320;-57
2024/04/11 05:58:43;;;;;;;19.70;17.50;;;;;;;29.72;28.76;100956.00;105904;1253;68646;-59
2024/04/11 06:01:15;;;;;;;22.80;16.10;;;;;;;29.94;28.45;100952.44;105637;1255;68885;-58
2024/04/11 06:11:19;;;;;;;23.60;17.10;;;;;;;30.24;28.52;100960.55;102314;1297;600164;-58
2024/04/11 06:13:48;;;;;;;23.60;17.40;;;;;;;30.35;28.76;100960.81;104736;1279;61521;-58
2024/04/11 06:16:15;;;;;;;28.00;17.80;;;;;;;30.54;28.08;100962.98;104843;1269;61393;-58
2024/04/11 06:18:48;;;;;;;24.90;16.50;;;;;;;30.69;28.18;100960.67;104885;1272;75505;-58
2024/04/11 06:21:22;;;;;;;29.20;17.10;;;;;;;30.90;27.74;100959.70;104724;1269;70461;-58
2024/04/11 06:23:50;;;;;;;21.00;15.70;;;;;;;31.00;27.39;100961.38;104532;1271;213155;-58
2024/04/11 06:26:18;;;;;;;19.50;15.20;;;;;;;31.23;27.19;100960.12;104778;1268;61323;-58
2024/04/11 06:28:45;;;;;;;21.10;15.90;;;;;;;31.56;26.91;100960.44;104703;1268;61701;-58
2024/04/11 06:31:14;;;;;;;21.60;15.30;;;;;;;31.97;26.37;100957.21;104546;1270;76444;-58
2024/04/11 06:33:43;;;;;;;27.10;16.40;;;;;;;32.35;25.63;100957.01;105648;1258;70308;-58
2024/04/11 06:36:12;;;;;;;20.80;16.50;;;;;;;32.65;25.83;100956.02;105701;1258;74607;-58
2024/04/11 06:38:40;;;;;;;22.60;16.30;;;;;;;33.01;25.38;100955.93;105622;1260;60543;-58
2024/04/11 06:41:13;;;;;;;22.70;14.80;;;;;;;33.41;24.68;100954.63;105697;1254;60795;-57
2024/04/11 06:43:42;;;;;;;18.90;14.20;;;;;;;33.76;24.08;100955.59;105663;1257;67423;-57
2024/04/11 06:46:10;;;;;;;20.10;14.20;;;;;;;34.13;23.74;100955.27;105634;1256;61290;-58
2024/04/11 06:48:41;;;;;;;21.10;12.70;;;;;;;34.46;23.18;100955.34;105484;1258;66256;-59
2024/04/11 06:51:09;;;;;;;18.20;13.10;;;;;;;34.71;22.72;100953.71;105728;1254;60442;-59
2024/04/11 06:53:39;;;;;;;15.00;12.20;;;;;;;34.95;22.32;100956.70;105495;1258;60455;-59
2024/04/11 06:56:08;;;;;;;15.00;10.10;;;;;;;35.08;21.79;100957.36;105662;1257;68026;-59
2024/04/11 06:58:40;;;;;;;15.30;9.70;;;;;;;35.16;21.56;100959.56;105676;1254;60351;-59
2024/04/11 07:01:09;;;;;;;13.70;9.90;;;;;;;35.37;21.25;100963.73;105612;1257;66825;-59
2024/04/11 07:03:40;;;;;;;15.20;9.80;;;;;;;35.61;20.65;100963.10;105849;1254;60517;-59
2024/04/11 07:06:15;;;;;;;15.90;10.30;;;;;;;35.88;20.31;100963.63;105590;1257;60362;-59
2024/04/11 07:08:43;;;;;;;14.60;10.30;;;;;;;36.14;20.33;100963.10;105781;1259;67402;-59
2024/04/11 07:11:20;;;;;;;14.30;10.70;;;;;;;36.39;19.83;100962.80;105647;1257;61340;-58
2024/04/11 07:13:56;;;;;;;15.80;10.40;;;;;;;36.51;19.51;100961.67;105260;1257;67183;-58
2024/04/11 07:16:40;;;;;;;14.50;9.90;;;;;;;36.59;19.58;100958.30;105294;1253;60442;-58
2024/04/11 07:19:11;;;;;;;13.80;8.50;;;;;;;36.65;19.15;100959.19;105539;1257;60600;-58
2024/04/11 07:21:39;;;;;;;15.30;8.40;;;;;;;36.65;18.40;100957.19;105570;1259;76270;-58
2024/04/11 07:24:07;;;;;;;10.50;6.60;;;;;;;36.64;18.48;100957.94;105359;1254;61074;-58
2024/04/11 07:26:38;;;;;;;11.10;6.20;;;;;;;36.67;17.97;100957.64;105680;1257;66790;-57
2024/04/11 07:29:08;;;;;;;11.50;5.40;;;;;;;36.72;17.65;100957.08;105882;1258;60485;-59
2024/04/11 07:31:39;;;;;;;7.50;4.90;;;;;;;36.85;17.18;100955.73;105488;1254;59253;-59
2024/04/11 07:34:08;;;;;;;10.40;5.70;;;;;;;37.01;17.28;100959.10;105638;1259;67406;-58
2024/04/11 07:36:39;;;;;;;9.00;5.70;;;;;;;37.25;16.93;100958.35;105589;1260;61133;-58
2024/04/11 07:39:09;;;;;;;10.00;6.70;;;;;;;37.42;16.87;100957.52;105883;1257;66323;-58
2024/04/11 07:41:46;;;;;;;11.40;7.60;;;;;;;37.54;16.89;100955.73;105386;1258;60445;-58
2024/04/11 07:44:22;;;;;;;13.20;6.80;;;;;;;37.60;17.00;100952.71;105496;1254;60441;-58
2024/04/11 07:46:51;;;;;;;10.40;7.10;;;;;;;37.75;17.14;100950.52;105389;1257;66700;-57
2024/04/11 07:49:40;;;;;;;9.90;6.40;;;;;;;37.99;16.98;100948.17;105362;1257;60824;-57
2024/04/11 07:52:10;;;;;;;10.90;7.00;;;;;;;38.11;16.88;100947.38;105420;1257;65553;-57
2024/04/11 07:54:42;;;;;;;8.60;6.80;;;;;;;38.17;16.83;100947.89;105667;1259;60530;-58
2024/04/11 07:57:19;;;;;;;8.60;7.00;;;;;;;38.29;16.74;100944.61;105364;1253;60499;-58
2024/04/11 07:59:47;;;;;;;10.10;6.60;;;;;;;38.16;16.91;100947.56;105296;1257;67205;-58
2024/04/11 08:02:15;;;;;;;9.10;6.00;;;;;;;38.17;17.01;100943.95;105175;1258;60640;-58
2024/04/11 08:04:43;;;;;;;9.70;6.90;;;;;;;38.39;16.81;100945.33;105336;1260;65193;-58
2024/04/11 08:07:11;;;;;;;9.90;7.00;;;;;;;38.39;16.81;100947.73;105402;1254;60508;-58
2024/04/11 08:09:44;;;;;;;8.60;7.40;;;;;;;38.41;16.83;100941.70;105443;1254;60951;-58
2024/04/11 08:12:17;;;;;;;8.60;7.70;;;;;;;38.50;16.46;100943.23;105304;1257;66288;-58
2024/04/11 08:14:45;;;;;;;7.50;6.70;;;;;;;38.33;16.32;100944.88;105451;1260;60449;-58
2024/04/11 08:17:13;;;;;;;14.30;8.00;;;;;;;38.00;16.53;100945.57;105439;1258;65618;-58
2024/04/11 08:19:44;;;;;;;11.10;7.40;;;;;;;37.78;16.73;100948.28;105429;1259;60847;-57
2024/04/11 08:22:25;;;;;;;10.40;7.10;;;;;;;37.60;16.92;100949.83;105099;1253;60639;-58
2024/04/11 08:24:53;;;;;;;9.90;7.10;;;;;;;37.49;17.16;100946.69;105379;1259;68005;-57
2024/04/11 08:27:22;;;;;;;8.40;7.40;;;;;;;37.61;17.11;100951.49;105487;1254;60927;-57
2024/04/11 08:29:51;;;;;;;8.60;7.30;;;;;;;37.68;17.23;100952.23;105403;1266;66258;-57
2024/04/11 08:32:21;;;;;;;9.20;7.40;;;;;;;37.77;17.38;100944.90;105707;1266;60471;-58
2024/04/11 08:34:51;;;;;;;8.80;7.20;;;;;;;38.00;16.88;100940.11;105490;1254;60508;-57
2024/04/11 08:37:19;;;;;;;13.10;7.60;;;;;;;38.10;17.04;100939.20;105379;1260;67837;-57
2024/04/11 08:39:47;;;;;;;9.90;7.80;;;;;;;38.29;16.77;100934.81;105409;1254;61068;-57
2024/04/11 08:42:15;;;;;;;10.20;7.10;;;;;;;38.42;16.77;100933.86;105366;1257;66773;-58
2024/04/11 08:44:43;;;;;;;9.90;7.60;;;;;;;38.57;16.63;100933.58;105358;1257;60553;-57
2024/04/11 08:47:11;;;;;;;9.60;6.90;;;;;;;38.68;16.70;100937.92;105504;1257;60476;-57
2024/04/11 08:49:39;;;;;;;10.00;7.40;;;;;;;38.62;16.38;100937.64;105461;1253;66769;-57
2024/04/11 08:52:07;;;;;;;9.40;7.20;;;;;;;38.40;17.07;100938.02;105362;1259;60502;-57
2024/04/11 08:54:35;;;;;;;9.40;7.10;;;;;;;38.58;16.93;100936.61;105466;1259;66725;-58
2024/04/11 08:57:03;;;;;;;13.60;8.60;;;;;;;38.77;16.70;100936.00;105411;1257;60566;-57
2024/04/11 08:59:31;;;;;;;9.10;8.10;;;;;;;38.85;16.63;100935.80;105489;1258;60348;-57
2024/04/11 09:01:59;;;;;;;29.90;9.80;;;;;;;38.91;16.76;100939.59;105234;1253;66849;-56
2024/04/11 09:04:28;;;;;;;9.30;7.00;;;;;;;38.96;16.55;100939.05;105397;1257;60563;-57
2024/04/11 09:06:57;;;;;;;8.80;7.20;;;;;;;38.78;16.22;100935.26;105451;1255;66718;-57
2024/04/11 09:09:24;;;;;;;7.70;6.90;;;;;;;38.42;16.50;100932.84;105429;1260;60476;-56
2024/04/11 09:11:52;;;;;;;9.80;5.90;;;;;;;38.11;17.06;100928.02;105410;1257;60582;-58
2024/04/11 09:14:20;;;;;;;5.80;4.50;;;;;;;38.15;16.69;100927.80;105440;1254;65600;-56
2024/04/11 09:17:01;;;;;;;5.50;3.70;;;;;;;38.28;16.35;100927.77;105160;1268;61056;-56
2024/04/11 09:19:32;;;;;;;6.80;3.90;;;;;;;38.41;16.14;100929.41;105432;1254;66716;-56
2024/04/11 09:22:00;;;;;;;6.00;4.20;;;;;;;38.48;16.06;100928.02;105631;1257;60535;-57
2024/04/11 09:24:29;;;;;;;6.30;4.70;;;;;;;38.53;15.94;100928.64;105150;1260;60453;-56
2024/04/11 09:26:59;;;;;;;7.70;5.30;;;;;;;38.60;15.88;100931.77;105385;1254;68074;-56
2024/04/11 09:29:27;;;;;;;;;;;;;;;38.52;15.90;100931.28;105432;1257;60377;-56
2024/04/11 09:31:56;;;;;;;7.50;5.50;;;;;;;38.07;16.32;100931.58;105415;1266;66754;-58
2024/04/11 09:34:29;;;;;;;9.50;5.70;;;;;;;37.67;16.70;100930.67;105484;1260;60553;-57
2024/04/11 09:36:59;;;;;;;10.20;5.30;;;;;;;37.41;16.87;100931.70;105509;1253;60467;-57
2024/04/11 09:39:46;;;;;;;8.20;6.10;;;;;;;37.11;16.99;100928.61;105566;1257;67963;-57
2024/04/11 09:42:19;;;;;;;9.30;6.20;;;;;;;36.54;17.37;100926.88;105453;1255;61290;-57
2024/04/11 09:44:52;;;;;;;10.10;6.20;;;;;;;36.20;17.75;100930.79;107925;1254;65633;-57
2024/04/11 09:47:31;;;;;;;7.90;5.40;;;;;;;36.08;17.73;100929.17;105358;1254;60553;-57
2024/04/11 09:50:04;;;;;;;7.90;6.50;;;;;;;35.87;17.77;100926.64;105527;1254;61177;-57
2024/04/11 09:52:37;;;;;;;8.20;6.20;;;;;;;35.51;17.79;100923.64;105392;1258;66373;-57
2024/04/11 09:55:07;;;;;;;7.50;5.70;;;;;;;35.14;18.16;100927.20;105313;1254;61027;-58
2024/04/11 09:57:41;;;;;;;6.60;5.40;;;;;;;34.90;18.36;100924.59;105397;1254;66590;-58
2024/04/11 10:00:22;;;;;;;6.70;5.00;;;;;;;34.72;18.61;100918.06;105311;1259;60537;-58
2024/04/11 10:02:54;;;;;;;8.30;5.30;;;;;;;34.89;18.70;100916.23;105103;1260;59705;-58
2024/04/11 10:05:25;;;;;;;6.80;5.30;;;;;;;35.32;18.53;100914.14;105284;1259;66643;-58
2024/04/11 10:08:01;;;;;;;6.20;5.00;;;;;;;35.65;18.22;100912.88;105376;1254;60791;-58
2024/04/11 10:10:30;;;;;;;7.40;5.20;;;;;;;35.69;18.05;100913.16;105577;1257;65682;-59
2024/04/11 10:13:03;;;;;;;7.40;5.60;;;;;;;35.65;18.00;100910.85;105353;1254;60574;-59
2024/04/11 10:15:33;;;;;;;7.60;5.20;;;;;;;35.55;18.18;100911.23;105417;1257;60380;-59
2024/04/11 10:18:09;;;;;;;7.80;4.80;;;;;;;35.41;18.16;100911.20;105372;1257;68035;-56
2024/04/11 10:20:43;;;;;;;6.70;5.10;;;;;;;35.35;18.32;100910.83;105127;1259;60918;-58
2024/04/11 10:23:15;;;;;;;13.10;5.00;;;;;;;35.46;18.18;100907.94;105396;1259;66714;-58
2024/04/11 10:25:49;;;;;;;8.70;5.60;;;;;;;35.28;18.30;100908.05;105391;1257;61357;-58
2024/04/11 10:28:18;;;;;;;10.20;5.50;;;;;;;35.00;18.67;100912.77;105291;1254;61343;-60
2024/04/11 10:30:50;;;;;;;9.40;5.60;;;;;;;35.00;18.88;100913.39;105492;1254;68641;-59
2024/04/11 10:33:29;;;;;;;7.10;5.10;;;;;;;35.37;18.50;100908.95;105357;1257;61384;-57
2024/04/11 10:35:57;;;;;;;6.80;4.80;;;;;;;35.85;18.20;100905.54;105217;1254;66688;-59
2024/04/11 10:38:27;;;;;;;6.50;4.40;;;;;;;36.15;17.83;100898.05;105223;1257;61198;-58
2024/04/11 10:40:56;;;;;;;8.50;5.10;;;;;;;36.23;17.56;100897.70;105673;1254;61191;-56
2024/04/11 10:43:27;;;;;;;6.10;4.90;;;;;;;35.94;17.80;100902.98;105665;1253;67178;-56
2024/04/11 10:45:58;;;;;;;7.30;5.00;;;;;;;35.54;17.97;100905.75;105717;1257;61533;-58
2024/04/11 10:48:26;;;;;;;6.40;4.70;;;;;;;35.15;18.23;100908.98;105410;1254;66797;-57
2024/04/11 10:50:59;;;;;;;6.20;5.00;;;;;;;34.89;18.53;100907.65;105406;1260;61277;-57
2024/04/11 10:53:27;;;;;;;8.00;5.50;;;;;;;34.74;18.84;100907.30;105424;1254;61662;-57
2024/04/11 10:55:55;;;;;;;7.40;4.90;;;;;;;34.63;18.92;100907.69;105451;1254;67812;-57
2024/04/11 10:58:28;;;;;;;8.40;5.50;;;;;;;34.56;19.04;100909.11;105513;1254;61394;-57
2024/04/11 11:06:13;;;;;;;7.40;5.50;;;;;;;35.06;18.76;100900.00;105433;1254;61342;-56
2024/04/11 11:08:44;;;;;;;7.10;5.10;;;;;;;35.44;18.75;100896.89;105500;1254;67581;-57
2024/04/11 11:11:14;;;;;;;7.40;4.60;;;;;;;35.73;18.31;100893.08;105470;1257;59958;-58
2024/04/11 11:13:44;;;;;;;10.10;6.10;;;;;;;35.70;18.43;100890.24;105447;1257;65413;-57
2024/04/11 11:16:12;;;;;;;9.80;6.40;;;;;;;35.54;18.17;100889.09;105415;1254;61264;-56
2024/04/11 11:18:43;;;;;;;5.80;4.60;;;;;;;35.16;18.40;100891.90;105478;1254;63624;-57
2024/04/11 11:21:16;;;;;;;;;;;;;;;34.79;18.67;100890.72;105753;1255;68305;-58
2024/04/11 11:23:45;;;;;;;9.20;5.80;;;;;;;34.27;18.94;100887.48;105400;1257;61233;-56
2024/04/11 11:26:20;;;;;;;8.30;4.90;;;;;;;33.84;19.48;100884.45;105445;1254;66766;-56
2024/04/11 11:28:51;;;;;;;7.80;5.30;;;;;;;33.68;19.61;100878.92;105376;1253;61222;-57